Home > Products > Valid Products > TAF

000
FTUS43 KEAX 021845 AAA
TAFMKC
TAF AMD
KMKC 021845Z 0219/0318 00000KT P6SM SCT017 BKN028
     FM022100 35005KT P6SM BKN045
     FM030100 VRB04KT P6SM SCT120
     FM031400 27005KT P6SM SKC=



000
FTUS43 KEAX 021756 CCA
TAFSTJ
TAF COR
KSTJ 021756Z 0218/0318 04008KT P6SM FEW023 SCT029 OVC060
     FM021900 35005KT P6SM SCT140
     FM030100 VRB05KT P6SM FEW200
     FM031400 27005KT P6SM SKC=



000
FTUS43 KEAX 021756 CCA
TAFSTJ
TAF COR
KSTJ 021756Z 0218/0318 04008KT P6SM FEW023 SCT029 OVC060
     FM021900 35005KT P6SM SCT140
     FM030100 VRB05KT P6SM FEW200
     FM031400 27005KT P6SM SKC=



000
FTUS43 KEAX 021755 CCA
TAFMKC
TAF COR
KMKC 021755Z 0218/0318 04004KT P6SM BKN026 OVC035
     FM022100 35005KT P6SM BKN045
     FM030100 VRB04KT P6SM SCT120
     FM031400 27005KT P6SM SKC=



000
FTUS43 KEAX 021755 CCA
TAFMKC
TAF COR
KMKC 021755Z 0218/0318 04004KT P6SM BKN026 OVC035
     FM022100 35005KT P6SM BKN045
     FM030100 VRB04KT P6SM SCT120
     FM031400 27005KT P6SM SKC=



000
FTUS43 KEAX 021730
TAFMKC
TAF
KMKC 021730Z 0218/0318 36005KT P6SM OVC040
     FM022100 35005KT P6SM BKN045
     FM030100 VRB04KT P6SM SCT120
     FM031400 27005KT P6SM SKC=



000
FTUS43 KEAX 021730
TAFSTJ
TAF
KSTJ 021730Z 0218/0318 36008KT P6SM BKN023 BKN050 OVC060
     FM021900 35005KT P6SM SCT140
     FM030100 VRB05KT P6SM FEW200
     FM031400 27005KT P6SM SKC=



000
FTUS43 KEAX 021730
TAFMCI
TAF
KMCI 021730Z 0218/0318 01005KT P6SM SCT020 BKN025 OVC030
     FM022000 35005KT P6SM BKN045
     FM030100 VRB05KT P6SM SCT100
     FM031400 27005KT P6SM SKC=



000
FTUS43 KEAX 021625 AAE
TAFMCI
TAF AMD
KMCI 021625Z 0216/0312 34005KT P6SM BKN019 BKN026 OVC035
     FM030000 35005KT P6SM SCT100=



000
FTUS43 KEAX 021625 AAE
TAFMCI
TAF AMD
KMCI 021625Z 0216/0312 34005KT P6SM BKN019 BKN026 OVC035
     FM030000 35005KT P6SM SCT100=



000
FTUS43 KEAX 021625 AAF
TAFMKC
TAF AMD
KMKC 021625Z 0216/0312 36005KT P6SM OVC035
     FM021900 35005KT P6SM OVC045
     FM030100 35004KT P6SM SCT120=



000
FTUS43 KEAX 021159 AAE
TAFMKC
TAF AMD
KMKC 021159Z 0212/0306 35005KT P6SM SCT025 OVC035
      TEMPO 0212/0216 BKN025
     FM021600 35006KT P6SM OVC025
     FM021900 35005KT P6SM OVC045
     FM030100 35004KT P6SM SCT120=



000
FTUS43 KEAX 021136 AAD
TAFSTJ
TAF AMD
KSTJ 021136Z 0212/0306 34007KT P6SM BKN035
      TEMPO 0212/0214 BKN025
     FM030000 35005KT P6SM SCT140=



000
FTUS43 KEAX 021136 AAD
TAFMCI
TAF AMD
KMCI 021136Z 0212/0306 33006KT P6SM OVC035
      TEMPO 0212/0215 BKN025
     FM021500 36006KT P6SM OVC040
     FM030000 35005KT P6SM SCT100=



000
FTUS43 KEAX 021136 AAD
TAFMKC
TAF AMD
KMKC 021136Z 0212/0306 33005KT P6SM OVC020
     FM021600 35006KT P6SM OVC025
     FM021900 35005KT P6SM OVC045
     FM030100 35004KT P6SM SCT120=



000
FTUS43 KEAX 021136 AAD
TAFMCI
TAF AMD
KMCI 021136Z 0212/0306 33006KT P6SM OVC035
      TEMPO 0212/0215 BKN025
     FM021500 36006KT P6SM OVC040
     FM030000 35005KT P6SM SCT100=



000
FTUS43 KEAX 021136 AAD
TAFMKC
TAF AMD
KMKC 021136Z 0212/0306 33005KT P6SM OVC020
     FM021600 35006KT P6SM OVC025
     FM021900 35005KT P6SM OVC045
     FM030100 35004KT P6SM SCT120=



000
FTUS43 KEAX 021136 AAD
TAFSTJ
TAF AMD
KSTJ 021136Z 0212/0306 34007KT P6SM BKN035
      TEMPO 0212/0214 BKN025
     FM030000 35005KT P6SM SCT140=



000
FTUS43 KEAX 021028 AAC
TAFSTJ
TAF AMD
KSTJ 021028Z 0210/0306 34005KT P6SM SCT025 BKN035
      TEMPO 0210/0212 SCT015 BKN025
     FM021800 36008KT P6SM VCSH BKN050
     FM022300 35006KT P6SM SCT070=



000
FTUS43 KEAX 021027 AAC
TAFMKC
TAF AMD
KMKC 021027Z 0210/0306 32005KT P6SM SCT015 BKN035
      TEMPO 0210/0212 BKN015
     FM021400 34006KT P6SM OVC030
     FM021800 35006KT P6SM VCSH OVC035
     FM022200 35006KT P6SM BKN060=



000
FTUS43 KEAX 020919 AAC
TAFMCI
TAF AMD
KMCI 020919Z 0209/0306 32005KT P6SM SCT015 BKN035
      TEMPO 0209/0211 BKN015
     FM021400 34006KT P6SM SCT015 BKN025
     FM021800 36007KT P6SM VCSH BKN040
     FM022200 35007KT P6SM BKN060=



000
FTUS43 KEAX 020525 AAB
TAFSTJ
TAF AMD
KSTJ 020525Z 0205/0224 34005KT P6SM SCT025 BKN035
     FM021800 36008KT P6SM VCSH BKN050
     FM022300 35006KT P6SM SCT070=



000
FTUS43 KEAX 020525 AAB
TAFMCI
TAF AMD
KMCI 020525Z 0205/0224 32005KT P6SM BKN035
      TEMPO 0206/0207 BKN015
     FM021400 34006KT P6SM SCT015 BKN025
     FM021800 36007KT P6SM VCSH BKN040
     FM022200 35007KT P6SM BKN060=



000
FTUS43 KEAX 020525 AAB
TAFMKC
TAF AMD
KMKC 020525Z 0205/0224 34005KT P6SM BKN035
     FM021400 34006KT P6SM OVC030
     FM021800 35006KT P6SM VCSH OVC035
     FM022200 35006KT P6SM BKN060=



000
FTUS43 KEAX 020316 AAA
TAFMCI
TAF AMD
KMCI 020316Z 0203/0224 34010KT P6SM SCT025 BKN035
      TEMPO 0203/0206 BKN025
     FM020600 34005KT P6SM BKN025
     FM021500 35008KT P6SM SCT020 BKN030
     FM021900 35008KT P6SM SCT030 BKN040=



000
FTUS43 KEAX 020316 AAA
TAFSTJ
TAF AMD
KSTJ 020316Z 0203/0224 34010KT P6SM SCT025 BKN035
      TEMPO 0203/0206 BKN025
     FM020600 35008KT P6SM BKN025
     FM021500 35008KT P6SM SCT020 BKN030
     FM021900 35008KT P6SM SCT030 BKN040=



000
FTUS43 KEAX 020316 AAA
TAFMKC
TAF AMD
KMKC 020316Z 0203/0224 33010KT P6SM SCT025 BKN035
      TEMPO 0203/0206 BKN025
     FM020600 34005KT P6SM BKN025
     FM021500 35008KT P6SM SCT020 BKN030
     FM021900 35008KT P6SM SCT030 BKN040=



000
FTUS43 KEAX 012340
TAFSTJ
TAF
KSTJ 012340Z 0200/0224 34010KT P6SM SCT015 BKN025
      TEMPO 0200/0203 BKN015
     FM020300 34005KT P6SM BKN015
     FM021500 35008KT P6SM SCT020 BKN030
     FM021900 35008KT P6SM SCT030 BKN040=



000
FTUS43 KEAX 012340
TAFMCI
TAF
KMCI 012340Z 0200/0224 34010KT P6SM BKN025
     FM020300 34005KT P6SM BKN015
     FM021500 35008KT P6SM SCT020 BKN030
     FM021900 35008KT P6SM SCT030 BKN040=



000
FTUS43 KEAX 012340
TAFMKC
TAF
KMKC 012340Z 0200/0224 33010KT P6SM SCT025 BKN035
      TEMPO 0200/0203 BKN025
     FM020300 34005KT P6SM BKN015
     FM021500 35008KT P6SM SCT020 BKN030
     FM021900 35008KT P6SM SCT030 BKN040=



000
FTUS43 KEAX 012206 AAA
TAFSTJ
TAF AMD
KSTJ 012206Z 0122/0218 33009KT P6SM OVC020
     FM021500 35008KT P6SM BKN020=



000
FTUS43 KEAX 012206 AAC
TAFMKC
TAF AMD
KMKC 012206Z 0122/0218 30008KT P6SM SCT030 OVC040
     FM012300 35006KT P6SM BKN025
     FM021500 35008KT P6SM BKN015=



000
FTUS43 KEAX 012206 AAC
TAFMCI
TAF AMD
KMCI 012206Z 0122/0218 33010KT P6SM BKN025
     FM020300 34005KT P6SM BKN015=



000
FTUS43 KEAX 012005 AAB
TAFMKC
TAF AMD
KMKC 012005Z 0120/0218 30008KT P6SM SCT035 BKN045 OVC060
     FM020400 34005KT P6SM BKN025
     FM021500 35008KT P6SM BKN015=



000
FTUS43 KEAX 012004 AAB
TAFMCI
TAF AMD
KMCI 012004Z 0120/0218 30010KT P6SM FEW016 OVC045
     FM020300 34005KT P6SM BKN015=



000
FTUS43 KEAX 011838 AAA
TAFMCI
TAF AMD
KMCI 011838Z 0119/0218 29010KT P6SM VCSH FEW026 BKN045
     FM012000 33011KT P6SM OVC011
     FM020300 34005KT P6SM BKN008
     FM021500 35008KT P6SM BKN015=



000
FTUS43 KEAX 011838 AAA
TAFMCI
TAF AMD
KMCI 011838Z 0119/0218 29010KT P6SM VCSH FEW026 BKN045
     FM012000 33011KT P6SM OVC011
     FM020300 34005KT P6SM BKN008
     FM021500 35008KT P6SM BKN015=



000
FTUS43 KEAX 011742 AAA
TAFMKC
TAF AMD
KMKC 011742Z 0118/0218 30005KT P6SM FEW030 OVC060
     FM012000 33011KT P6SM OVC011
     FM020400 34005KT P6SM BKN008
     FM021500 35008KT P6SM BKN015=



000
FTUS43 KEAX 011742 AAA
TAFMKC
TAF AMD
KMKC 011742Z 0118/0218 30005KT P6SM FEW030 OVC060
     FM012000 33011KT P6SM OVC011
     FM020400 34005KT P6SM BKN008
     FM021500 35008KT P6SM BKN015=



000
FTUS43 KEAX 011737
TAFMCI
TAF
KMCI 011737Z 0118/0218 30009KT P6SM VCSH BKN019 OVC060
      TEMPO 0118/0119 3SM RA OVC009
     FM011900 33011KT P6SM OVC011
     FM020300 34005KT P6SM BKN008
     FM021500 35008KT P6SM BKN015=



000
FTUS43 KEAX 011737
TAFSTJ
TAF
KSTJ 011737Z 0118/0218 01009KT P6SM OVC011
     FM012200 34013KT P6SM OVC008
     FM021500 35008KT P6SM BKN020=



000
FTUS43 KEAX 011737
TAFMKC
TAF
KMKC 011737Z 0118/0218 30005KT P6SM FEW030 OVC060
     FM011900 33011KT P6SM OVC011
     FM020300 34005KT P6SM BKN008
     FM021500 35008KT P6SM BKN015=



000
FTUS43 KEAX 011513 AAA
TAFSTJ
TAF AMD
KSTJ 011513Z 0115/0212 01007KT P6SM VCSH OVC009
     FM011800 33010KT P6SM OVC015
     FM012100 34013KT P6SM OVC025
     FM021000 35005KT P6SM BKN020=



000
FTUS43 KEAX 011123
TAFMCI
TAF
KMCI 011123Z 0112/0212 26004KT P6SM OVC045
     FM011500 31008KT P6SM OVC025
     FM012100 33011KT P6SM OVC035
     FM020100 35008KT P6SM BKN025
     FM021000 34005KT P6SM BKN010=



000
FTUS43 KEAX 011123
TAFMKC
TAF
KMKC 011123Z 0112/0212 26004KT P6SM OVC050
     FM011900 31009KT P6SM OVC035
     FM020100 35008KT P6SM BKN030
     FM020300 35005KT P6SM BKN020=



000
FTUS43 KEAX 011123
TAFSTJ
TAF
KSTJ 011123Z 0112/0212 30004KT P6SM OVC035
     FM011400 35004KT P6SM VCSH OVC025
     FM011800 33010KT P6SM OVC015
     FM012100 34013KT P6SM OVC025
     FM021000 35005KT P6SM BKN020=



000
FTUS43 KEAX 010520
TAFMCI
TAF
KMCI 010520Z 0106/0206 27008KT P6SM BKN040
     FM011400 28010KT P6SM OVC025
     FM012000 33010KT P6SM OVC025=



000
FTUS43 KEAX 010520
TAFSTJ
TAF
KSTJ 010520Z 0106/0206 27007KT P6SM BKN040
     FM011200 29008KT P6SM OVC025
      TEMPO 0115/0119 OVC015
     FM011900 34012KT P6SM OVC025=



000
FTUS43 KEAX 010520
TAFMCI
TAF
KMCI 010520Z 0106/0206 27008KT P6SM BKN040
     FM011400 28010KT P6SM OVC025
     FM012000 33010KT P6SM OVC025=



000
FTUS43 KEAX 010520
TAFMKC
TAF
KMKC 010520Z 0106/0206 26007KT P6SM BKN040
     FM011400 29008KT P6SM OVC025
     FM012000 33009KT P6SM OVC025=



000
FTUS43 KEAX 302320
TAFMCI
TAF
KMCI 302320Z 0100/0124 27008KT P6SM BKN040
     FM011100 26006KT P6SM OVC015
     FM011700 31010KT P6SM OVC025=



000
FTUS43 KEAX 302320
TAFSTJ
TAF
KSTJ 302320Z 0100/0124 27007KT P6SM BKN040
     FM011000 28006KT P6SM OVC015
     FM011900 32013KT P6SM OVC025=



000
FTUS43 KEAX 302320
TAFMKC
TAF
KMKC 302320Z 0100/0124 26007KT P6SM BKN040
     FM011100 26005KT P6SM OVC015
     FM011700 31009KT P6SM OVC025=



000
FTUS43 KEAX 302108 AAC
TAFSTJ
TAF AMD
KSTJ 302108Z 3021/0118 25010KT P6SM SCT030 BKN035
     FM010500 32006KT P6SM BKN015=



000
FTUS43 KEAX 302012 AAB
TAFMKC
TAF AMD
KMKC 302012Z 3020/0118 24014G22KT P6SM FEW040
     FM010500 32006KT P6SM BKN020=



000
FTUS43 KEAX 302012 AAB
TAFSTJ
TAF AMD
KSTJ 302012Z 3020/0118 23012KT P6SM BKN022 OVC027
     FM010500 32006KT P6SM BKN015=



000
FTUS43 KEAX 301829 AAA
TAFMCI
TAF AMD
KMCI 301829Z 3018/0118 24014G18KT P6SM FEW017 SCT027 SCT040
     FM010000 27008KT P6SM BKN060
     FM010500 32006KT P6SM BKN020=



000
FTUS43 KEAX 301829 AAA
TAFMCI
TAF AMD
KMCI 301829Z 3018/0118 24014G18KT P6SM FEW017 SCT027 SCT040
     FM010000 27008KT P6SM BKN060
     FM010500 32006KT P6SM BKN020=



000
FTUS43 KEAX 301813 AAA
TAFMKC
TAF AMD
KMKC 301813Z 3018/0118 23012G21KT P6SM BKN025 OVC030
     FM301900 24009KT P6SM BKN025
     FM010500 32006KT P6SM BKN020=



000
FTUS43 KEAX 301813 AAA
TAFMKC
TAF AMD
KMKC 301813Z 3018/0118 23012G21KT P6SM BKN025 OVC030
     FM301900 24009KT P6SM BKN025
     FM010500 32006KT P6SM BKN020=



000
FTUS43 KEAX 301813 AAA
TAFSTJ
TAF AMD
KSTJ 301813Z 3018/0118 23014G19KT P6SM SCT012 BKN017 OVC035
     FM302000 22008KT P6SM BKN015
     FM010500 32006KT P6SM BKN015=



000
FTUS43 KEAX 301813 AAA
TAFSTJ
TAF AMD
KSTJ 301813Z 3018/0118 23014G19KT P6SM SCT012 BKN017 OVC035
     FM302000 22008KT P6SM BKN015
     FM010500 32006KT P6SM BKN015=



000
FTUS43 KEAX 301734
TAFMCI
TAF
KMCI 301734Z 3018/0118 25015G23KT P6SM SCT006 BKN010
     FM302000 24010KT P6SM BKN020
     FM010000 27008KT P6SM BKN060
     FM010500 32006KT P6SM BKN020=



000
FTUS43 KEAX 301734
TAFMKC
TAF
KMKC 301734Z 3018/0118 26016G23KT P6SM SCT022 SCT035 BKN060
     FM301900 24009KT P6SM BKN025
     FM010500 32006KT P6SM BKN020=



000
FTUS43 KEAX 301734
TAFSTJ
TAF
KSTJ 301734Z 3018/0118 16004KT P6SM OVC006
     FM302000 22008KT P6SM BKN015
     FM010500 32006KT P6SM BKN015=



000
FTUS43 KEAX 301734
TAFSTJ
TAF
KSTJ 301734Z 3018/0118 16004KT P6SM OVC006
     FM302000 22008KT P6SM BKN015
     FM010500 32006KT P6SM BKN015=



000
FTUS43 KEAX 301734
TAFMKC
TAF
KMKC 301734Z 3018/0118 26016G23KT P6SM SCT022 SCT035 BKN060
     FM301900 24009KT P6SM BKN025
     FM010500 32006KT P6SM BKN020=



000
FTUS43 KEAX 301734
TAFMCI
TAF
KMCI 301734Z 3018/0118 25015G23KT P6SM SCT006 BKN010
     FM302000 24010KT P6SM BKN020
     FM010000 27008KT P6SM BKN060
     FM010500 32006KT P6SM BKN020=



000
FTUS43 KEAX 301550 AAA
TAFMCI
TAF AMD
KMCI 301550Z 3016/0112 15008KT 6SM BR VCSH SCT006 OVC010
     FM301700 20008KT P6SM SCT008
     FM302000 24010KT P6SM SCT040
     FM010000 27008KT P6SM BKN060
     FM010500 27006KT P6SM SCT020=



000
FTUS43 KEAX 301526 AAA
TAFMKC
TAF AMD
KMKC 301526Z 3015/0112 16004KT P6SM VCSH OVC010
     FM301700 21008KT P6SM SCT010
     FM301900 24009KT P6SM SCT040
     FM010500 27006KT P6SM SCT020=



000
FTUS43 KEAX 301134
TAFSTJ
TAF
KSTJ 301134Z 3012/0112 10009KT P6SM VCSH BKN008
      TEMPO 3012/3014 5SM -SHRA
     FM301800 15007KT P6SM BKN008
     FM302000 22008KT P6SM BKN015
     FM302200 27007KT P6SM BKN035
     FM010300 01006KT P6SM BKN015=



000
FTUS43 KEAX 301134
TAFMKC
TAF
KMKC 301134Z 3012/0112 11007KT P6SM VCSH OVC006
      TEMPO 3012/3014 6SM -SHRA
     FM301500 17007KT P6SM VCSH BKN009
     FM301700 21008KT P6SM SCT010
     FM301900 24009KT P6SM SCT040
     FM010500 27006KT P6SM SCT020=



000
FTUS43 KEAX 301134
TAFMCI
TAF
KMCI 301134Z 3012/0112 14008KT P6SM VCSH OVC003
      TEMPO 3012/3014 5SM -SHRA
     FM301700 20008KT P6SM SCT008
     FM302000 24010KT P6SM SCT040
     FM010000 27008KT P6SM BKN060
     FM010500 27006KT P6SM SCT020=



000
FTUS43 KEAX 301100 AAB
TAFSTJ
TAF AMD
KSTJ 301100Z 3011/0106 09012KT 3SM -RA BR OVC006
      TEMPO 3011/3012 2SM TSRA OVC006CB
     FM301900 30010KT P6SM OVC015
     FM302300 04007KT P6SM OVC015=



000
FTUS43 KEAX 301100 AAB
TAFSTJ
TAF AMD
KSTJ 301100Z 3011/0106 09012KT 3SM -RA BR OVC006
      TEMPO 3011/3012 2SM TSRA OVC006CB
     FM301900 30010KT P6SM OVC015
     FM302300 04007KT P6SM OVC015=



000
FTUS43 KEAX 301055 AAB
TAFMCI
TAF AMD
KMCI 301055Z 3011/0106 08012KT 5SM BR VCSH OVC003
      TEMPO 3011/3012 2SM TSRA OVC003CB
     FM301500 15009KT P6SM OVC015
     FM302100 32008KT P6SM OVC025=



000
FTUS43 KEAX 301055 AAB
TAFMCI
TAF AMD
KMCI 301055Z 3011/0106 08012KT 5SM BR VCSH OVC003
      TEMPO 3011/3012 2SM TSRA OVC003CB
     FM301500 15009KT P6SM OVC015
     FM302100 32008KT P6SM OVC025=



000
FTUS43 KEAX 300914 AAA
TAFMKC
TAF AMD
KMKC 300914Z 3009/0106 08009KT 4SM -SHRA BR OVC004
     FM301200 09012KT 5SM BR VCSH OVC005
     FM301800 25008KT P6SM OVC015
     FM302000 27008KT P6SM OVC025=



000
FTUS43 KEAX 300912 AAA
TAFSTJ
TAF AMD
KSTJ 300912Z 3009/0106 09012KT 2SM -RA BR OVC006
      TEMPO 3013/3016 4SM BR OVC003
     FM301900 30010KT P6SM OVC015
     FM302300 04007KT P6SM OVC015=



000
FTUS43 KEAX 300801 AAA
TAFMCI
TAF AMD
KMCI 300801Z 3008/0106 08012KT 5SM BR VCSH OVC003
     FM301500 15009KT P6SM OVC015
     FM302100 32008KT P6SM OVC025=



000
FTUS43 KEAX 300520
TAFMCI
TAF
KMCI 300520Z 3006/0106 08017G24KT P6SM -SHRA OVC007
     FM301000 08012KT 5SM BR VCSH OVC007
      TEMPO 3012/3016 4SM BR OVC003
     FM301900 25009KT P6SM OVC015
     FM302100 32008KT P6SM OVC025=



000
FTUS43 KEAX 300520
TAFMKC
TAF
KMKC 300520Z 3006/0106 08015G22KT P6SM -SHRA OVC007
     FM301200 09012KT 5SM BR VCSH OVC005
     FM301800 25008KT P6SM OVC015
     FM302000 27008KT P6SM OVC025=



000
FTUS43 KEAX 300520
TAFSTJ
TAF
KSTJ 300520Z 3006/0106 08014G21KT P6SM -SHRA OVC007
     FM301000 08012KT 5SM BR VCSH OVC007
      TEMPO 3013/3016 4SM BR OVC003
     FM301900 30010KT P6SM OVC015
     FM302300 04007KT P6SM OVC015=



000
FTUS43 KEAX 292320
TAFMCI
TAF
KMCI 292320Z 3000/3024 07014G22KT 5SM -RA BR OVC025
     FM300400 09019G28KT 5SM -SHRA BR OVC015
     FM300600 09017G24KT 5SM BR OVC007
     FM301000 10012KT 5SM BR VCTS OVC007CB
     FM301800 20008KT P6SM OVC015=



000
FTUS43 KEAX 292320
TAFMKC
TAF
KMKC 292320Z 3000/3024 06014G22KT 5SM -RA BR OVC025
     FM300300 08017G25KT 5SM -SHRA BR OVC015
     FM300600 08015G22KT 5SM BR OVC007
     FM301000 10010KT 5SM BR VCTS OVC007CB
     FM301700 20008KT P6SM OVC015=



000
FTUS43 KEAX 292320
TAFSTJ
TAF
KSTJ 292320Z 3000/3024 06017G24KT 5SM -RA BR OVC025
     FM300600 08016G23KT 5SM BR OVC007
     FM300800 09016G23KT 5SM -TSRA BR OVC007CB
     FM301600 10008KT P6SM OVC007
     FM301900 33010KT P6SM OVC015=



    US Dept of Commerce
    National Oceanic and Atmospheric Administration
    National Weather Service
    1325 East West Highway
    Silver Spring, MD 20910
    Page Author: NWS Internet Services Team
Disclaimer
Information Quality
Credits
Glossary
Privacy Policy
Freedom of Information Act (FOIA)
About Us
Career Opportunities